Time;durP1;ratioP1;P1;durP2;ratioP2;P2;SDS_P1;SDS_P2;PMS_P1;PMS_P2;Temp;Humidity;BMP_temperature;BMP_pressure;BME280_temperature;BME280_humidity;BME280_pressure;Samples;Min_cycle;Max_cycle;Signal;HPM_P1;HPM_P2
2021/01/10 00:01:16;;;;;;;;;;;27.50;42.80;;;;;;5076671;28;20007;-61
2021/01/10 00:03:41;;;;;;;;;;;27.50;42.70;;;;;;5076934;28;19909;-61
2021/01/10 00:06:10;;;;;;;;;;;27.50;42.70;;;;;;5076561;28;20371;-60
2021/01/10 00:08:35;;;;;;;;;;;27.50;42.70;;;;;;5076677;28;19954;-60
2021/01/10 00:11:01;;;;;;;;;;;27.50;42.70;;;;;;5077586;28;19912;-61
2021/01/10 00:13:26;;;;;;;;;;;27.50;42.60;;;;;;5091110;28;20342;-62
2021/01/10 00:15:52;;;;;;;;;;;27.50;42.60;;;;;;5076670;28;19909;-62
2021/01/10 00:18:17;;;;;;;;;;;27.50;42.70;;;;;;5076701;28;19908;-62
2021/01/10 00:20:42;;;;;;;;;;;27.50;42.50;;;;;;5076431;28;20375;-62
2021/01/10 00:23:08;;;;;;;;;;;27.50;42.40;;;;;;5076206;28;19912;-62
2021/01/10 00:25:34;;;;;;;;;;;27.50;42.10;;;;;;5076139;28;19920;-62
2021/01/10 00:27:59;;;;;;;;;;;27.50;42.00;;;;;;5091235;28;19919;-62
2021/01/10 00:30:25;;;;;;;;;;;27.60;42.00;;;;;;5096362;28;19927;-62
2021/01/10 00:32:51;;;;;;;;;;;27.60;42.00;;;;;;5096318;28;20243;-62
2021/01/10 00:35:16;;;;;;;;;;;27.60;41.90;;;;;;5096311;28;20011;-62
2021/01/10 00:37:48;;;;;;;;;;;27.60;41.90;;;;;;5096499;28;19989;-62
2021/01/10 00:40:14;;;;;;;;;;;27.60;41.70;;;;;;5096093;28;20400;-62
2021/01/10 00:42:41;;;;;;;;;;;27.60;41.70;;;;;;5081819;28;20013;-62
2021/01/10 00:45:06;;;;;;;;;;;27.60;41.70;;;;;;5076068;28;19908;-62
2021/01/10 00:47:32;;;;;;;;;;;27.50;41.60;;;;;;5075922;28;19916;-62
2021/01/10 00:49:57;;;;;;;;;;;27.60;41.60;;;;;;5075723;28;19915;-62
2021/01/10 00:52:27;;;;;;;;;;;27.60;41.60;;;;;;5075845;28;19915;-62
2021/01/10 00:54:52;;;;;;;;;;;27.60;41.50;;;;;;5075803;28;20003;-62
2021/01/10 00:57:17;;;;;;;;;;;27.60;41.40;;;;;;5079400;28;20439;-62
2021/01/10 00:59:43;;;;;;;;;;;27.60;41.50;;;;;;5075835;28;19919;-62
2021/01/10 01:02:11;;;;;;;;;;;27.60;41.50;;;;;;5075809;28;19912;-63
2021/01/10 01:04:36;;;;;;;;;;;27.60;41.40;;;;;;5075408;28;20366;-62
2021/01/10 01:07:02;;;;;;;;;;;27.50;41.40;;;;;;5074677;28;19909;-62
2021/01/10 01:09:27;;;;;;;;;;;27.50;41.40;;;;;;5075686;28;20408;-63
2021/01/10 01:11:53;;;;;;;;;;;27.50;41.40;;;;;;5076301;28;19919;-62
2021/01/10 01:14:19;;;;;;;;;;;27.50;41.30;;;;;;5086574;28;19920;-62
2021/01/10 01:16:44;;;;;;;;;;;27.50;41.20;;;;;;5095552;28;19916;-62
2021/01/10 01:19:09;;;;;;;;;;;27.50;41.20;;;;;;5095760;28;19916;-62
2021/01/10 01:21:35;;;;;;;;;;;27.50;41.20;;;;;;5095373;28;20317;-62
2021/01/10 01:24:01;;;;;;;;;;;27.50;41.10;;;;;;5095376;28;19915;-62
2021/01/10 01:26:26;;;;;;;;;;;27.50;41.20;;;;;;5089304;28;19973;-62
2021/01/10 01:28:52;;;;;;;;;;;27.50;41.10;;;;;;5075352;28;20368;-62
2021/01/10 01:31:18;;;;;;;;;;;27.50;41.10;;;;;;5074899;28;19928;-62
2021/01/10 01:33:43;;;;;;;;;;;27.50;41.00;;;;;;5074837;28;19920;-62
2021/01/10 01:36:10;;;;;;;;;;;27.50;41.10;;;;;;5091742;28;19961;-62
2021/01/10 01:38:35;;;;;;;;;;;27.50;41.10;;;;;;5095373;28;20034;-62
2021/01/10 01:41:01;;;;;;;;;;;27.50;41.10;;;;;;5094836;28;19995;-62
2021/01/10 01:43:26;;;;;;;;;;;27.50;41.10;;;;;;5095164;28;19914;-62
2021/01/10 01:45:52;;;;;;;;;;;27.50;41.10;;;;;;5095031;28;20765;-62
2021/01/10 01:48:17;;;;;;;;;;;27.50;41.00;;;;;;5095008;28;19908;-61
2021/01/10 01:50:43;;;;;;;;;;;27.50;40.90;;;;;;5078242;28;20267;-62
2021/01/10 01:53:08;;;;;;;;;;;27.50;40.80;;;;;;5074542;28;19951;-62
2021/01/10 01:55:36;;;;;;;;;;;27.50;40.80;;;;;;5074568;28;19920;-62
2021/01/10 01:58:04;;;;;;;;;;;27.50;40.80;;;;;;5089789;28;20385;-62
2021/01/10 02:00:29;;;;;;;;;;;27.50;40.80;;;;;;5074743;28;19962;-62
2021/01/10 02:02:55;;;;;;;;;;;27.50;40.80;;;;;;5074667;28;19912;-62
2021/01/10 02:05:20;;;;;;;;;;;27.50;40.80;;;;;;5088111;28;19916;-62
2021/01/10 02:07:59;;;;;;;;;;;27.50;40.70;;;;;;5094539;28;19947;-62
2021/01/10 02:10:26;;;;;;;;;;;27.50;40.80;;;;;;5092679;28;19909;-62
2021/01/10 02:12:52;;;;;;;;;;;27.50;40.70;;;;;;5093368;28;19908;-62
2021/01/10 02:15:25;;;;;;;;;;;27.50;40.80;;;;;;5094316;28;19916;-62
2021/01/10 02:17:51;;;;;;;;;;;27.40;40.70;;;;;;5094181;28;19961;-62
2021/01/10 02:20:37;;;;;;;;;;;27.40;40.70;;;;;;5094494;28;19908;-62
2021/01/10 02:23:16;;;;;;;;;;;27.40;41.20;;;;;;5093787;28;19948;-62
2021/01/10 02:25:41;;;;;;;;;;;27.40;40.60;;;;;;5085638;28;19916;-62
2021/01/10 02:28:09;;;;;;;;;;;27.40;40.70;;;;;;5063482;28;19913;-62
2021/01/10 02:30:34;;;;;;;;;;;27.30;40.60;;;;;;5053737;28;19931;-62
2021/01/10 02:33:04;;;;;;;;;;;27.40;40.60;;;;;;5054081;28;19909;-62
2021/01/10 02:35:30;;;;;;;;;;;27.40;40.70;;;;;;5069283;28;19940;-62
2021/01/10 02:38:14;;;;;;;;;;;27.40;40.60;;;;;;5069105;28;19915;-62
2021/01/10 02:40:40;;;;;;;;;;;27.40;41.10;;;;;;5059418;28;19912;-62
2021/01/10 02:43:14;;;;;;;;;;;27.50;40.40;;;;;;5085208;28;19912;-62
2021/01/10 02:45:42;;;;;;;;;;;27.40;40.30;;;;;;5073389;28;19915;-62
2021/01/10 02:48:09;;;;;;;;;;;27.40;40.40;;;;;;5088991;28;19908;-62
2021/01/10 02:50:35;;;;;;;;;;;27.40;40.30;;;;;;5073518;28;19931;-62
2021/01/10 02:53:00;;;;;;;;;;;27.40;40.30;;;;;;5073337;28;20426;-61
2021/01/10 02:55:26;;;;;;;;;;;27.40;40.30;;;;;;5073242;28;20003;-62
2021/01/10 02:57:52;;;;;;;;;;;27.40;40.30;;;;;;5080869;28;20420;-62
2021/01/10 03:00:18;;;;;;;;;;;27.30;40.20;;;;;;5093781;28;19995;-62
2021/01/10 03:02:45;;;;;;;;;;;27.40;40.30;;;;;;5092222;28;20042;-62
2021/01/10 03:05:11;;;;;;;;;;;27.40;40.10;;;;;;5093637;28;19908;-62
2021/01/10 03:07:36;;;;;;;;;;;27.40;40.10;;;;;;5092145;28;20328;-62
2021/01/10 03:10:03;;;;;;;;;;;27.40;40.10;;;;;;5092439;28;19908;-62
2021/01/10 03:12:29;;;;;;;;;;;27.40;40.10;;;;;;5073779;28;20405;-62
2021/01/10 03:14:54;;;;;;;;;;;27.40;40.70;;;;;;5088801;28;19951;-62
2021/01/10 03:17:39;;;;;;;;;;;27.40;40.10;;;;;;5072982;28;20329;-62
2021/01/10 03:20:05;;;;;;;;;;;27.30;40.00;;;;;;5072918;28;19913;-62
2021/01/10 03:22:31;;;;;;;;;;;27.30;40.00;;;;;;5072980;28;19912;-62
2021/01/10 03:24:56;;;;;;;;;;;27.40;40.10;;;;;;5072868;28;19919;-62
2021/01/10 03:27:22;;;;;;;;;;;27.30;40.00;;;;;;5086670;28;19962;-62
2021/01/10 03:29:47;;;;;;;;;;;27.30;40.00;;;;;;5092348;28;20320;-62
2021/01/10 03:32:13;;;;;;;;;;;27.30;40.00;;;;;;5093054;28;19908;-62
2021/01/10 03:34:38;;;;;;;;;;;27.40;40.00;;;;;;5092892;28;19920;-62
2021/01/10 03:37:04;;;;;;;;;;;27.40;39.90;;;;;;5093209;28;19918;-62
2021/01/10 03:39:30;;;;;;;;;;;27.40;39.90;;;;;;5092869;28;19908;-62
2021/01/10 03:41:56;;;;;;;;;;;27.40;39.90;;;;;;5078439;28;19920;-62
2021/01/10 03:44:22;;;;;;;;;;;27.30;39.90;;;;;;5072855;28;19987;-62
2021/01/10 03:46:47;;;;;;;;;;;27.30;39.90;;;;;;5072981;28;19912;-62
2021/01/10 03:49:13;;;;;;;;;;;27.40;39.90;;;;;;5072919;28;19909;-62
2021/01/10 03:51:38;;;;;;;;;;;27.30;39.80;;;;;;5072770;28;19942;-62
2021/01/10 03:54:04;;;;;;;;;;;27.40;39.80;;;;;;5072509;28;19921;-62
2021/01/10 03:56:30;;;;;;;;;;;27.40;39.70;;;;;;5084702;28;19912;-62
2021/01/10 03:58:55;;;;;;;;;;;27.40;39.60;;;;;;5092721;28;19959;-62
2021/01/10 04:01:21;;;;;;;;;;;27.40;39.60;;;;;;5092977;28;19914;-62
2021/01/10 04:03:46;;;;;;;;;;;27.40;39.60;;;;;;5092712;28;19934;-62
2021/01/10 04:06:12;;;;;;;;;;;27.40;39.50;;;;;;5092755;28;20407;-62
2021/01/10 04:08:37;;;;;;;;;;;27.40;39.60;;;;;;5093007;28;19912;-62
2021/01/10 04:11:03;;;;;;;;;;;27.40;39.50;;;;;;5090584;28;20342;-62
2021/01/10 04:13:28;;;;;;;;;;;27.30;39.50;;;;;;5092516;28;19908;-62
2021/01/10 04:15:54;;;;;;;;;;;27.30;39.50;;;;;;5092583;28;19920;-62
2021/01/10 04:18:19;;;;;;;;;;;27.30;39.50;;;;;;5092477;28;20312;-62
2021/01/10 04:20:45;;;;;;;;;;;27.30;39.50;;;;;;5092868;28;19943;-61
2021/01/10 04:23:10;;;;;;;;;;;27.20;39.50;;;;;;5092827;28;19908;-62
2021/01/10 04:25:36;;;;;;;;;;;27.20;39.50;;;;;;5083393;28;19912;-62
2021/01/10 04:28:01;;;;;;;;;;;27.30;39.40;;;;;;5072583;28;19916;-62
2021/01/10 04:30:27;;;;;;;;;;;27.40;39.30;;;;;;5072187;28;20406;-62
2021/01/10 04:32:52;;;;;;;;;;;27.30;39.30;;;;;;5072207;28;20270;-62
2021/01/10 04:35:18;;;;;;;;;;;27.30;39.30;;;;;;5072388;28;19968;-62
2021/01/10 04:37:43;;;;;;;;;;;27.30;39.30;;;;;;5072549;28;20270;-62
2021/01/10 04:40:09;;;;;;;;;;;27.30;39.30;;;;;;5078821;28;19918;-62
2021/01/10 04:42:34;;;;;;;;;;;27.30;39.30;;;;;;5082727;28;20313;-62
2021/01/10 04:45:00;;;;;;;;;;;27.30;39.20;;;;;;5075918;28;19909;-62
2021/01/10 04:47:25;;;;;;;;;;;27.20;39.10;;;;;;5091533;28;19909;-62
2021/01/10 04:49:51;;;;;;;;;;;27.30;39.10;;;;;;5076007;28;19908;-62
2021/01/10 04:52:18;;;;;;;;;;;27.30;39.10;;;;;;5075641;28;20260;-62
2021/01/10 04:54:43;;;;;;;;;;;27.30;39.10;;;;;;5075467;28;20568;-62
2021/01/10 04:57:12;;;;;;;;;;;27.30;39.10;;;;;;5084643;28;19937;-62
2021/01/10 04:59:41;;;;;;;;;;;27.20;39.10;;;;;;5096095;28;19915;-62
2021/01/10 05:02:07;;;;;;;;;;;27.20;39.20;;;;;;5095914;28;19999;-62
2021/01/10 05:04:32;;;;;;;;;;;27.30;39.10;;;;;;5095593;28;20393;-62
2021/01/10 05:06:58;;;;;;;;;;;27.30;39.00;;;;;;5095647;28;19955;-62
2021/01/10 05:09:24;;;;;;;;;;;27.30;39.00;;;;;;5094674;28;19916;-62
2021/01/10 05:11:49;;;;;;;;;;;27.30;38.90;;;;;;5091281;28;19912;-62
2021/01/10 05:14:15;;;;;;;;;;;27.30;38.90;;;;;;5075163;28;20011;-62
2021/01/10 05:16:41;;;;;;;;;;;27.20;38.90;;;;;;5075542;28;19908;-62
2021/01/10 05:19:06;;;;;;;;;;;27.30;38.90;;;;;;5090817;28;19954;-62
2021/01/10 05:21:32;;;;;;;;;;;27.20;38.70;;;;;;5075156;28;20294;-62
2021/01/10 05:23:58;;;;;;;;;;;27.30;38.70;;;;;;5075009;28;19987;-62
2021/01/10 05:26:30;;;;;;;;;;;27.20;38.70;;;;;;5094285;28;19950;-62
2021/01/10 05:28:56;;;;;;;;;;;27.20;38.80;;;;;;5095869;28;19957;-62
2021/01/10 05:31:41;;;;;;;;;;;27.30;38.70;;;;;;5093751;28;19965;-62
2021/01/10 05:34:16;;;;;;;;;;;27.20;38.70;;;;;;5095073;28;19916;-62
2021/01/10 05:36:42;;;;;;;;;;;27.20;38.80;;;;;;5095398;28;19912;-62
2021/01/10 05:39:19;;;;;;;;;;;27.20;38.70;;;;;;5092025;28;20652;-62
2021/01/10 05:42:01;;;;;;;;;;;27.20;38.60;;;;;;5055011;28;19925;-62
2021/01/10 05:44:27;;;;;;;;;;;27.20;38.60;;;;;;5059257;28;20450;-62
2021/01/10 05:47:05;;;;;;;;;;;27.20;38.60;;;;;;5074661;28;20358;-62
2021/01/10 05:49:31;;;;;;;;;;;27.20;38.70;;;;;;5074842;28;19908;-62
2021/01/10 05:51:56;;;;;;;;;;;27.10;38.70;;;;;;5074731;28;20004;-62
2021/01/10 05:54:35;;;;;;;;;;;27.10;38.70;;;;;;5089548;28;20464;-62
2021/01/10 05:57:01;;;;;;;;;;;27.20;38.60;;;;;;5074541;28;19920;-62
2021/01/10 05:59:27;;;;;;;;;;;27.20;38.50;;;;;;5081007;28;19919;-62
2021/01/10 06:01:53;;;;;;;;;;;27.20;38.60;;;;;;5093651;28;19990;-62
2021/01/10 06:04:22;;;;;;;;;;;27.20;38.60;;;;;;5094413;28;20327;-62
2021/01/10 06:06:47;;;;;;;;;;;27.20;38.50;;;;;;5093292;28;19915;-62
2021/01/10 06:09:12;;;;;;;;;;;27.20;38.40;;;;;;5094597;28;19908;-64
2021/01/10 06:11:38;;;;;;;;;;;27.30;38.30;;;;;;5094398;28;19952;-63
2021/01/10 06:14:04;;;;;;;;;;;27.20;38.20;;;;;;5087379;28;20447;-61
2021/01/10 06:16:36;;;;;;;;;;;27.20;38.20;;;;;;5074130;28;19908;-64
2021/01/10 06:19:05;;;;;;;;;;;27.20;38.20;;;;;;5074035;28;19916;-63
2021/01/10 06:21:30;;;;;;;;;;;27.20;38.20;;;;;;5094184;28;19916;-64
2021/01/10 06:23:57;;;;;;;;;;;27.20;38.20;;;;;;5094198;28;20244;-63
2021/01/10 06:26:23;;;;;;;;;;;27.20;38.10;;;;;;5094059;28;20010;-63
2021/01/10 06:28:53;;;;;;;;;;;27.20;38.10;;;;;;5094113;28;19908;-63
2021/01/10 06:31:22;;;;;;;;;;;27.20;38.20;;;;;;5085574;28;19921;-63
2021/01/10 06:33:49;;;;;;;;;;;27.20;38.20;;;;;;5073425;28;19915;-63
2021/01/10 06:36:15;;;;;;;;;;;27.20;38.20;;;;;;5073503;28;20321;-63
2021/01/10 06:38:40;;;;;;;;;;;27.20;38.20;;;;;;5089718;28;19912;-63
2021/01/10 06:41:12;;;;;;;;;;;27.20;38.20;;;;;;5089148;28;20015;-63
2021/01/10 06:43:37;;;;;;;;;;;27.20;38.20;;;;;;5073718;28;19909;-63
2021/01/10 06:46:03;;;;;;;;;;;27.10;38.10;;;;;;5089375;28;19908;-63
2021/01/10 06:48:28;;;;;;;;;;;27.10;38.10;;;;;;5089061;28;19974;-63
2021/01/10 06:50:54;;;;;;;;;;;27.20;38.10;;;;;;5073570;28;19920;-63
2021/01/10 06:53:19;;;;;;;;;;;27.20;38.00;;;;;;5088994;28;19915;-63
2021/01/10 06:55:45;;;;;;;;;;;27.20;38.00;;;;;;5089199;28;19942;-63
2021/01/10 06:58:10;;;;;;;;;;;27.20;37.90;;;;;;5088901;28;19920;-63
2021/01/10 07:00:52;;;;;;;;;;;27.20;37.90;;;;;;5093510;28;19912;-63
2021/01/10 07:03:17;;;;;;;;;;;27.20;38.00;;;;;;5093802;28;19943;-63
2021/01/10 07:05:58;;;;;;;;;;;27.10;38.00;;;;;;5092614;28;19943;-63
2021/01/10 07:08:30;;;;;;;;;;;27.20;38.00;;;;;;5093350;28;19991;-63
2021/01/10 07:10:55;;;;;;;;;;;27.10;37.90;;;;;;5093324;28;19915;-63
2021/01/10 07:13:24;;;;;;;;;;;27.10;37.90;;;;;;5089910;28;19916;-63
2021/01/10 07:16:05;;;;;;;;;;;27.20;37.90;;;;;;5073032;28;20019;-63
2021/01/10 07:18:30;;;;;;;;;;;27.10;37.80;;;;;;5088481;28;19908;-63
2021/01/10 07:20:56;;;;;;;;;;;27.10;37.80;;;;;;5072973;28;20365;-63
2021/01/10 07:23:28;;;;;;;;;;;27.20;37.90;;;;;;5073187;28;19938;-63
2021/01/10 07:25:54;;;;;;;;;;;27.20;37.80;;;;;;5073172;28;19952;-63
2021/01/10 07:28:33;;;;;;;;;;;27.10;37.80;;;;;;5077881;28;19958;-63
2021/01/10 07:31:05;;;;;;;;;;;27.10;37.80;;;;;;5092929;28;19955;-63
2021/01/10 07:33:30;;;;;;;;;;;27.20;37.80;;;;;;5093344;28;19969;-63
2021/01/10 07:35:59;;;;;;;;;;;27.20;37.80;;;;;;5092847;28;20433;-62
2021/01/10 07:38:26;;;;;;;;;;;27.20;37.60;;;;;;5092906;28;19954;-63
2021/01/10 07:40:51;;;;;;;;;;;27.10;37.70;;;;;;5092869;28;19908;-63
2021/01/10 07:43:17;;;;;;;;;;;27.10;37.80;;;;;;5087450;28;19916;-63
2021/01/10 07:45:43;;;;;;;;;;;27.10;37.80;;;;;;5081503;28;20003;-63
2021/01/10 07:48:09;;;;;;;;;;;27.10;37.80;;;;;;5072692;28;20358;-63
2021/01/10 07:50:35;;;;;;;;;;;27.10;37.70;;;;;;5088136;28;19912;-63
2021/01/10 07:53:01;;;;;;;;;;;27.10;37.70;;;;;;5088273;28;19909;-63
2021/01/10 07:55:27;;;;;;;;;;;27.20;37.70;;;;;;5072443;28;19962;-63
2021/01/10 07:58:01;;;;;;;;;;;27.10;37.50;;;;;;5073886;28;19918;-63
2021/01/10 08:00:50;;;;;;;;;;;27.10;37.60;;;;;;5092661;28;20286;-63
2021/01/10 08:03:18;;;;;;;;;;;27.10;37.50;;;;;;5086957;28;19915;-63
2021/01/10 08:05:54;;;;;;;;;;;27.10;37.60;;;;;;5092949;28;19990;-63
2021/01/10 08:08:20;;;;;;;;;;;27.20;37.60;;;;;;5092695;28;20004;-63
2021/01/10 08:10:49;;;;;;;;;;;27.10;37.50;;;;;;5091711;28;19952;-63
2021/01/10 08:13:30;;;;;;;;;;;27.10;37.40;;;;;;5089543;28;19966;-63
2021/01/10 08:15:56;;;;;;;;;;;27.10;37.50;;;;;;5093514;28;19945;-63
2021/01/10 08:18:22;;;;;;;;;;;27.10;37.40;;;;;;5096683;28;19909;-63
2021/01/10 08:20:51;;;;;;;;;;;27.20;37.50;;;;;;5096916;28;20255;-63
2021/01/10 08:23:17;;;;;;;;;;;27.10;37.50;;;;;;5096771;28;19963;-63
2021/01/10 08:25:42;;;;;;;;;;;27.10;37.50;;;;;;5096451;28;19908;-63
2021/01/10 08:28:08;;;;;;;;;;;27.10;37.50;;;;;;5088710;28;19919;-63
2021/01/10 08:30:33;;;;;;;;;;;27.00;37.50;;;;;;5076031;28;19924;-63
2021/01/10 08:32:59;;;;;;;;;;;27.00;37.50;;;;;;5076016;28;19908;-63
2021/01/10 08:35:24;;;;;;;;;;;27.00;37.40;;;;;;5075806;28;19966;-63
2021/01/10 08:37:50;;;;;;;;;;;27.10;37.40;;;;;;5076035;28;19952;-63
2021/01/10 08:40:15;;;;;;;;;;;27.00;37.50;;;;;;5075961;28;20351;-63
2021/01/10 08:42:41;;;;;;;;;;;27.00;37.50;;;;;;5075209;28;19912;-62
2021/01/10 08:45:13;;;;;;;;;;;27.00;37.40;;;;;;5068878;28;20008;-63
2021/01/10 08:47:39;;;;;;;;;;;27.10;37.50;;;;;;5075188;28;19927;-63
2021/01/10 08:50:04;;;;;;;;;;;27.00;37.40;;;;;;5091684;28;19912;-63
2021/01/10 08:52:30;;;;;;;;;;;27.10;37.30;;;;;;5075939;28;20366;-63
2021/01/10 08:54:55;;;;;;;;;;;27.10;37.40;;;;;;5075474;28;20286;-63
2021/01/10 08:57:21;;;;;;;;;;;27.00;37.30;;;;;;5076129;28;19908;-63
2021/01/10 08:59:47;;;;;;;;;;;27.10;37.30;;;;;;5095790;28;19934;-63
2021/01/10 09:02:12;;;;;;;;;;;27.00;37.20;;;;;;5094614;28;19908;-63
2021/01/10 09:04:39;;;;;;;;;;;27.10;37.30;;;;;;5095610;28;19925;-62
2021/01/10 09:07:05;;;;;;;;;;;27.00;37.20;;;;;;5084482;28;19931;-63
2021/01/10 09:09:30;;;;;;;;;;;27.10;37.20;;;;;;5093148;28;19995;-63
2021/01/10 09:11:59;;;;;;;;;;;27.10;37.20;;;;;;5076884;28;20341;-63
2021/01/10 09:14:25;;;;;;;;;;;27.10;37.70;;;;;;5090957;28;20011;-63
2021/01/10 09:16:50;;;;;;;;;;;27.10;37.10;;;;;;5075121;28;20038;-63
2021/01/10 09:19:16;;;;;;;;;;;27.10;37.00;;;;;;5090754;28;19916;-63
2021/01/10 09:21:46;;;;;;;;;;;27.10;37.10;;;;;;5075273;28;19909;-63
2021/01/10 09:24:12;;;;;;;;;;;27.10;37.10;;;;;;5090614;28;19914;-63
2021/01/10 09:26:37;;;;;;;;;;;27.10;37.10;;;;;;5072913;28;19988;-63
2021/01/10 09:29:03;;;;;;;;;;;27.10;37.20;;;;;;5054250;28;19955;-63
2021/01/10 09:31:38;;;;;;;;;;;27.00;37.20;;;;;;5055145;28;19924;-63
2021/01/10 09:34:05;;;;;;;;;;;27.00;37.20;;;;;;5064537;28;20544;-63
2021/01/10 09:36:30;;;;;;;;;;;27.00;37.20;;;;;;5074856;28;19930;-63
2021/01/10 09:38:56;;;;;;;;;;;27.00;37.10;;;;;;5075128;28;19909;-63
2021/01/10 09:41:21;;;;;;;;;;;27.00;37.20;;;;;;5074914;28;20012;-63
2021/01/10 09:43:47;;;;;;;;;;;27.10;37.20;;;;;;5074914;28;19944;-63
2021/01/10 09:46:32;;;;;;;;;;;27.10;37.00;;;;;;5074904;28;19909;-63
2021/01/10 09:48:58;;;;;;;;;;;27.10;37.10;;;;;;5080538;28;19919;-63
2021/01/10 09:51:24;;;;;;;;;;;27.00;37.20;;;;;;5080069;28;19920;-63
2021/01/10 09:53:50;;;;;;;;;;;27.00;37.10;;;;;;5074603;28;19912;-63
2021/01/10 09:56:35;;;;;;;;;;;27.10;37.10;;;;;;5074423;28;19966;-63
2021/01/10 09:59:01;;;;;;;;;;;27.10;37.10;;;;;;5070182;28;19908;-63
2021/01/10 10:01:39;;;;;;;;;;;27.00;37.00;;;;;;5074332;28;19961;-63
2021/01/10 10:04:04;;;;;;;;;;;27.10;37.10;;;;;;5076513;28;20003;-63
2021/01/10 10:06:49;;;;;;;;;;;27.00;37.10;;;;;;5074229;28;19999;-63
2021/01/10 10:09:14;;;;;;;;;;;27.00;37.10;;;;;;5074091;28;19939;-63
2021/01/10 10:11:40;;;;;;;;;;;27.00;37.10;;;;;;5074318;28;20414;-63
2021/01/10 10:14:07;;;;;;;;;;;27.00;37.10;;;;;;5074102;28;19943;-63
2021/01/10 10:16:32;;;;;;;;;;;27.00;37.10;;;;;;5074020;28;19908;-63
2021/01/10 10:18:58;;;;;;;;;;;27.00;37.00;;;;;;5086501;28;19908;-63
2021/01/10 10:21:24;;;;;;;;;;;27.10;37.00;;;;;;5094121;28;20344;-63
2021/01/10 10:23:49;;;;;;;;;;;27.10;36.90;;;;;;5094290;28;19933;-63
2021/01/10 10:26:15;;;;;;;;;;;27.10;36.90;;;;;;5094016;28;20026;-63
2021/01/10 10:28:40;;;;;;;;;;;27.10;37.00;;;;;;5094223;28;20030;-63
2021/01/10 10:31:06;;;;;;;;;;;27.10;37.00;;;;;;5093981;28;19920;-63
2021/01/10 10:33:32;;;;;;;;;;;27.10;37.10;;;;;;5090493;28;20305;-63
2021/01/10 10:35:58;;;;;;;;;;;27.00;37.00;;;;;;5093882;28;20395;-63
2021/01/10 10:38:23;;;;;;;;;;;27.00;37.00;;;;;;5093817;28;20050;-63
2021/01/10 10:40:49;;;;;;;;;;;27.10;37.00;;;;;;5094075;28;19908;-63
2021/01/10 10:43:14;;;;;;;;;;;27.10;37.00;;;;;;5093815;28;20384;-63
2021/01/10 10:45:40;;;;;;;;;;;27.10;37.00;;;;;;5094004;28;19961;-63
2021/01/10 10:48:05;;;;;;;;;;;27.10;37.00;;;;;;5090279;28;19998;-63
2021/01/10 10:50:31;;;;;;;;;;;27.10;37.00;;;;;;5093761;28;19916;-63
2021/01/10 10:52:56;;;;;;;;;;;27.10;37.00;;;;;;5093637;28;20410;-63
2021/01/10 10:55:25;;;;;;;;;;;27.00;37.10;;;;;;5092501;28;19922;-63
2021/01/10 10:57:50;;;;;;;;;;;27.00;37.10;;;;;;5085892;28;19995;-63
2021/01/10 11:00:16;;;;;;;;;;;27.10;37.10;;;;;;5074673;28;20436;-63
2021/01/10 11:02:43;;;;;;;;;;;27.10;37.00;;;;;;5093671;28;19916;-63
2021/01/10 11:05:08;;;;;;;;;;;27.10;37.10;;;;;;5093445;28;20013;-63
2021/01/10 11:07:37;;;;;;;;;;;27.10;37.10;;;;;;5093309;28;20436;-63
2021/01/10 11:10:03;;;;;;;;;;;27.10;37.00;;;;;;5093618;28;19922;-63
2021/01/10 11:12:32;;;;;;;;;;;27.10;36.90;;;;;;5093645;28;19908;-63
2021/01/10 11:14:58;;;;;;;;;;;27.10;36.90;;;;;;5092226;28;19920;-63
2021/01/10 11:17:23;;;;;;;;;;;27.10;37.00;;;;;;5081971;28;19912;-64
2021/01/10 11:19:49;;;;;;;;;;;27.10;37.00;;;;;;5093203;28;19908;-64
2021/01/10 11:22:14;;;;;;;;;;;27.10;37.00;;;;;;5093129;28;19919;-64
2021/01/10 11:24:41;;;;;;;;;;;27.20;37.00;;;;;;5093128;28;19998;-64
2021/01/10 11:27:07;;;;;;;;;;;27.20;37.00;;;;;;5093415;28;19916;-64
2021/01/10 11:29:32;;;;;;;;;;;27.20;37.00;;;;;;5092878;28;19926;-64
2021/01/10 11:31:58;;;;;;;;;;;27.20;37.00;;;;;;5085712;28;19912;-63
2021/01/10 11:34:23;;;;;;;;;;;27.20;37.00;;;;;;5072965;28;19958;-64
2021/01/10 11:36:50;;;;;;;;;;;27.20;37.00;;;;;;5072742;28;20362;-64
2021/01/10 11:39:15;;;;;;;;;;;27.20;37.00;;;;;;5072963;28;19913;-64
2021/01/10 11:41:47;;;;;;;;;;;27.20;36.90;;;;;;5072581;28;19909;-64
2021/01/10 11:44:13;;;;;;;;;;;27.20;36.90;;;;;;5072663;28;20423;-63
2021/01/10 11:46:39;;;;;;;;;;;27.20;36.90;;;;;;5087256;28;20012;-63
2021/01/10 11:49:05;;;;;;;;;;;27.20;37.00;;;;;;5092758;28;19912;-63
2021/01/10 11:51:30;;;;;;;;;;;27.20;36.90;;;;;;5096919;28;19919;-63
2021/01/10 11:53:56;;;;;;;;;;;27.20;36.90;;;;;;5099631;28;19922;-63
2021/01/10 11:56:21;;;;;;;;;;;27.20;36.90;;;;;;5099780;28;19916;-63
2021/01/10 11:58:47;;;;;;;;;;;27.20;36.90;;;;;;5099809;28;20378;-63
2021/01/10 12:01:12;;;;;;;;;;;27.30;36.80;;;;;;5082934;28;20385;-63
2021/01/10 12:03:38;;;;;;;;;;;27.20;36.80;;;;;;5076007;28;19916;-63
2021/01/10 12:06:04;;;;;;;;;;;27.20;36.90;;;;;;5079365;28;19909;-63
2021/01/10 12:08:29;;;;;;;;;;;27.20;36.90;;;;;;5079042;28;20260;-63
2021/01/10 12:10:55;;;;;;;;;;;27.20;36.90;;;;;;5079381;28;19912;-63
2021/01/10 12:13:20;;;;;;;;;;;27.20;37.00;;;;;;5079189;28;19913;-62
2021/01/10 12:15:46;;;;;;;;;;;27.20;37.00;;;;;;5086151;28;20312;-63
2021/01/10 12:18:11;;;;;;;;;;;27.20;37.00;;;;;;5099415;28;19912;-63
2021/01/10 12:20:37;;;;;;;;;;;27.20;37.00;;;;;;5099387;27;20436;-63
2021/01/10 12:23:03;;;;;;;;;;;27.30;37.00;;;;;;5099719;28;19920;-63
2021/01/10 12:25:28;;;;;;;;;;;27.20;36.90;;;;;;5099146;28;19908;-63
2021/01/10 12:27:54;;;;;;;;;;;27.30;36.90;;;;;;5099393;27;19912;-63
2021/01/10 12:30:20;;;;;;;;;;;27.30;37.00;;;;;;5093491;28;20256;-62
2021/01/10 12:32:45;;;;;;;;;;;27.30;37.00;;;;;;5079143;28;19913;-62
2021/01/10 12:35:11;;;;;;;;;;;27.20;37.00;;;;;;5078932;28;19917;-64
2021/01/10 12:37:37;;;;;;;;;;;27.20;37.00;;;;;;5079107;28;19909;-64
2021/01/10 12:40:04;;;;;;;;;;;27.10;37.00;;;;;;5084072;28;20160;-68
2021/01/10 12:42:30;;;;;;;;;;;27.20;36.90;;;;;;5078809;28;20385;-71
2021/01/10 12:44:55;;;;;;;;;;;27.30;36.80;;;;;;5078825;28;19909;-66
2021/01/10 12:47:21;;;;;;;;;;;27.30;36.70;;;;;;5079021;28;19917;-65
2021/01/10 12:49:46;;;;;;;;;;;27.40;36.70;;;;;;5078981;28;20263;-63
2021/01/10 12:52:12;;;;;;;;;;;27.50;36.50;;;;;;5078767;28;20366;-62
2021/01/10 12:54:37;;;;;;;;;;;27.70;36.30;;;;;;5087805;28;19927;-65
2021/01/10 12:57:03;;;;;;;;;;;27.80;36.20;;;;;;5099211;28;19912;-62
2021/01/10 12:59:29;;;;;;;;;;;27.80;36.10;;;;;;5099092;28;20006;-65
2021/01/10 13:01:54;;;;;;;;;;;27.90;36.10;;;;;;5097710;28;19920;-65
2021/01/10 13:04:20;;;;;;;;;;;27.90;36.10;;;;;;5087671;28;20456;-65
2021/01/10 13:06:45;;;;;;;;;;;27.90;36.10;;;;;;5075372;28;19909;-66
2021/01/10 13:09:11;;;;;;;;;;;27.80;36.10;;;;;;5075651;28;20001;-68
2021/01/10 13:11:36;;;;;;;;;;;27.70;36.40;;;;;;5075272;28;19908;-67
2021/01/10 13:14:02;;;;;;;;;;;27.60;36.50;;;;;;5075150;28;19915;-69
2021/01/10 13:16:27;;;;;;;;;;;27.50;36.60;;;;;;5075191;28;19915;-69
2021/01/10 13:18:53;;;;;;;;;;;27.50;36.80;;;;;;5075930;28;19909;-68
2021/01/10 13:21:18;;;;;;;;;;;27.50;36.80;;;;;;5095393;28;19919;-64
2021/01/10 13:23:44;;;;;;;;;;;27.40;37.20;;;;;;5095671;28;20025;-65
2021/01/10 13:26:16;;;;;;;;;;;27.40;37.10;;;;;;5095356;28;19996;-61
2021/01/10 13:28:41;;;;;;;;;;;27.30;37.10;;;;;;5095575;28;19909;-64
2021/01/10 13:31:07;;;;;;;;;;;27.40;37.00;;;;;;5095124;28;19946;-63
2021/01/10 13:33:33;;;;;;;;;;;27.40;37.00;;;;;;5083830;28;20381;-55
2021/01/10 13:35:59;;;;;;;;;;;;;;;;;;5074941;28;19931;-47
2021/01/10 13:38:24;;;;;;;;;;;24.70;25.40;;;;;;5075047;28;19912;-46
2021/01/10 13:40:52;;;;;;;;;;;20.10;24.20;;;;;;5074181;28;19931;-50
2021/01/10 13:43:18;;;;;;;;;;;18.90;27.70;;;;;;5073701;28;19917;-50
2021/01/10 13:45:44;;;;;;;;;;;19.00;28.00;;;;;;5074703;28;19924;-50
2021/01/10 13:48:09;;;;;;;;;;;19.30;26.40;;;;;;5084091;28;20313;-50
2021/01/10 13:50:35;;;;;;;;;;;20.00;25.90;;;;;;5094903;28;20293;-44
2021/01/10 13:53:00;;;;;;;;;;;16.60;22.10;;;;;;5094766;28;20392;-45
2021/01/10 13:55:26;;;;;;;;;;;14.90;28.20;;;;;;5094703;28;19916;-44
2021/01/10 13:57:51;;;;;;;;;;;12.90;27.30;;;;;;5094990;28;19909;-44
2021/01/10 14:00:17;;;;;;;;;;;12.00;31.20;;;;;;5094698;28;20058;-62
2021/01/10 14:02:42;;;;;;;;;;;12.10;35.60;;;;;;5086110;28;19915;-52
2021/01/10 14:05:09;;;;;;;;;;;;;;;;;;5083931;28;19912;-51
2021/01/10 14:07:35;;;;;;;;;;;17.70;31.10;;;;;;5094541;28;19920;-51
2021/01/10 14:10:00;;;;;;;;;;;19.70;29.40;;;;;;5094545;28;19981;-51
2021/01/10 14:12:26;;;;;;;;;;;21.20;27.80;;;;;;5094614;28;19909;-50
2021/01/10 14:14:52;;;;;;;;;;;22.20;26.90;;;;;;5093972;28;19923;-51
2021/01/10 14:17:17;;;;;;;;;;;23.00;25.40;;;;;;5094386;28;19994;-50